sensor_id;sensor_type;location;lat;lon;timestamp;temperature;humidity
51215;DHT22;63849;47.546;19.254;2023-03-04T00:01:17;1.00;81.70
51215;DHT22;63849;47.546;19.254;2023-03-04T00:03:43;0.90;81.40
51215;DHT22;63849;47.546;19.254;2023-03-04T00:06:10;1.10;81.90
51215;DHT22;63849;47.546;19.254;2023-03-04T00:08:35;0.80;82.30
51215;DHT22;63849;47.546;19.254;2023-03-04T00:11:02;1.00;81.20
51215;DHT22;63849;47.546;19.254;2023-03-04T00:13:28;1.30;79.90
51215;DHT22;63849;47.546;19.254;2023-03-04T00:15:54;1.30;79.40
51215;DHT22;63849;47.546;19.254;2023-03-04T00:18:20;1.40;79.00
51215;DHT22;63849;47.546;19.254;2023-03-04T00:20:46;1.40;78.70
51215;DHT22;63849;47.546;19.254;2023-03-04T00:23:14;1.50;78.10
51215;DHT22;63849;47.546;19.254;2023-03-04T00:25:40;1.40;77.50
51215;DHT22;63849;47.546;19.254;2023-03-04T00:28:06;1.40;77.80
51215;DHT22;63849;47.546;19.254;2023-03-04T00:30:34;1.50;77.30
51215;DHT22;63849;47.546;19.254;2023-03-04T00:33:00;1.50;77.30
51215;DHT22;63849;47.546;19.254;2023-03-04T00:35:26;1.40;77.30
51215;DHT22;63849;47.546;19.254;2023-03-04T00:37:51;1.20;77.20
51215;DHT22;63849;47.546;19.254;2023-03-04T00:40:17;1.10;77.60
51215;DHT22;63849;47.546;19.254;2023-03-04T00:42:43;1.00;77.60
51215;DHT22;63849;47.546;19.254;2023-03-04T00:45:09;1.20;77.60
51215;DHT22;63849;47.546;19.254;2023-03-04T00:47:35;0.90;78.40
51215;DHT22;63849;47.546;19.254;2023-03-04T00:50:04;1.20;77.20
51215;DHT22;63849;47.546;19.254;2023-03-04T00:52:30;1.30;76.90
51215;DHT22;63849;47.546;19.254;2023-03-04T00:54:56;1.10;77.10
51215;DHT22;63849;47.546;19.254;2023-03-04T00:57:22;1.10;76.90
51215;DHT22;63849;47.546;19.254;2023-03-04T00:59:48;1.20;76.60
51215;DHT22;63849;47.546;19.254;2023-03-04T01:02:13;1.10;76.30
51215;DHT22;63849;47.546;19.254;2023-03-04T01:04:39;1.10;76.70
51215;DHT22;63849;47.546;19.254;2023-03-04T01:07:06;1.00;76.60
51215;DHT22;63849;47.546;19.254;2023-03-04T01:09:32;0.90;76.90
51215;DHT22;63849;47.546;19.254;2023-03-04T01:11:58;0.80;77.50
51215;DHT22;63849;47.546;19.254;2023-03-04T01:14:24;0.90;77.80
51215;DHT22;63849;47.546;19.254;2023-03-04T01:16:50;0.80;77.30
51215;DHT22;63849;47.546;19.254;2023-03-04T01:19:16;0.60;77.90
51215;DHT22;63849;47.546;19.254;2023-03-04T01:21:42;0.80;77.50
51215;DHT22;63849;47.546;19.254;2023-03-04T01:24:08;0.40;78.60
51215;DHT22;63849;47.546;19.254;2023-03-04T01:26:34;0.70;77.80
51215;DHT22;63849;47.546;19.254;2023-03-04T01:29:00;0.70;77.50
51215;DHT22;63849;47.546;19.254;2023-03-04T01:31:26;0.80;76.90
51215;DHT22;63849;47.546;19.254;2023-03-04T01:33:52;0.80;76.50
51215;DHT22;63849;47.546;19.254;2023-03-04T01:36:19;0.80;76.20
51215;DHT22;63849;47.546;19.254;2023-03-04T01:38:55;0.80;76.60
51215;DHT22;63849;47.546;19.254;2023-03-04T01:41:25;0.90;76.20
51215;DHT22;63849;47.546;19.254;2023-03-04T01:43:57;0.40;76.70
51215;DHT22;63849;47.546;19.254;2023-03-04T01:46:25;0.30;78.20
51215;DHT22;63849;47.546;19.254;2023-03-04T01:48:51;0.30;78.00
51215;DHT22;63849;47.546;19.254;2023-03-04T01:51:18;0.40;77.60
51215;DHT22;63849;47.546;19.254;2023-03-04T01:53:47;0.20;78.40
51215;DHT22;63849;47.546;19.254;2023-03-04T01:58:44;0.50;76.50
51215;DHT22;63849;47.546;19.254;2023-03-04T02:01:11;0.60;76.50
51215;DHT22;63849;47.546;19.254;2023-03-04T02:03:38;0.60;76.40
51215;DHT22;63849;47.546;19.254;2023-03-04T02:06:06;0.40;77.00
51215;DHT22;63849;47.546;19.254;2023-03-04T02:08:31;0.50;76.60
51215;DHT22;63849;47.546;19.254;2023-03-04T02:10:58;0.60;76.20
51215;DHT22;63849;47.546;19.254;2023-03-04T02:13:24;0.70;75.50
51215;DHT22;63849;47.546;19.254;2023-03-04T02:15:51;0.50;75.80
51215;DHT22;63849;47.546;19.254;2023-03-04T02:18:19;0.60;75.60
51215;DHT22;63849;47.546;19.254;2023-03-04T02:20:59;0.60;75.60
51215;DHT22;63849;47.546;19.254;2023-03-04T02:23:38;0.20;76.50
51215;DHT22;63849;47.546;19.254;2023-03-04T02:26:11;0.30;76.80
51215;DHT22;63849;47.546;19.254;2023-03-04T02:28:37;0.40;75.90
51215;DHT22;63849;47.546;19.254;2023-03-04T02:31:03;0.40;76.10
51215;DHT22;63849;47.546;19.254;2023-03-04T02:33:28;0.30;76.40
51215;DHT22;63849;47.546;19.254;2023-03-04T02:35:55;0.20;76.70
51215;DHT22;63849;47.546;19.254;2023-03-04T02:38:20;0.20;76.70
51215;DHT22;63849;47.546;19.254;2023-03-04T02:40:49;0.00;77.20
51215;DHT22;63849;47.546;19.254;2023-03-04T02:43:15;0.20;76.90
51215;DHT22;63849;47.546;19.254;2023-03-04T02:45:45;0.00;76.80
51215;DHT22;63849;47.546;19.254;2023-03-04T02:48:15;-0.10;78.10
51215;DHT22;63849;47.546;19.254;2023-03-04T02:50:53;0.10;77.50
51215;DHT22;63849;47.546;19.254;2023-03-04T02:53:20;0.10;77.00
51215;DHT22;63849;47.546;19.254;2023-03-04T02:55:47;0.10;77.40
51215;DHT22;63849;47.546;19.254;2023-03-04T02:58:13;0.20;76.80
51215;DHT22;63849;47.546;19.254;2023-03-04T03:00:40;0.10;77.00
51215;DHT22;63849;47.546;19.254;2023-03-04T03:03:06;0.00;77.00
51215;DHT22;63849;47.546;19.254;2023-03-04T03:05:33;-0.40;78.80
51215;DHT22;63849;47.546;19.254;2023-03-04T03:07:59;-0.20;78.20
51215;DHT22;63849;47.546;19.254;2023-03-04T03:10:25;-0.30;78.70
51215;DHT22;63849;47.546;19.254;2023-03-04T03:12:52;-0.10;78.10
51215;DHT22;63849;47.546;19.254;2023-03-04T03:15:18;-0.20;78.40
51215;DHT22;63849;47.546;19.254;2023-03-04T03:17:45;-0.30;78.30
51215;DHT22;63849;47.546;19.254;2023-03-04T03:20:11;-0.10;78.50
51215;DHT22;63849;47.546;19.254;2023-03-04T03:22:38;-0.20;78.80
51215;DHT22;63849;47.546;19.254;2023-03-04T03:25:05;-0.40;79.10
51215;DHT22;63849;47.546;19.254;2023-03-04T03:27:31;-0.20;78.60
51215;DHT22;63849;47.546;19.254;2023-03-04T03:29:57;0.00;77.80
51215;DHT22;63849;47.546;19.254;2023-03-04T03:32:23;-0.10;77.80
51215;DHT22;63849;47.546;19.254;2023-03-04T03:34:49;0.00;77.20
51215;DHT22;63849;47.546;19.254;2023-03-04T03:37:15;-0.10;76.90
51215;DHT22;63849;47.546;19.254;2023-03-04T03:39:41;0.00;77.10
51215;DHT22;63849;47.546;19.254;2023-03-04T03:42:07;-0.10;77.10
51215;DHT22;63849;47.546;19.254;2023-03-04T03:44:35;-0.10;77.00
51215;DHT22;63849;47.546;19.254;2023-03-04T03:47:02;-0.10;77.50
51215;DHT22;63849;47.546;19.254;2023-03-04T03:49:28;-0.30;77.70
51215;DHT22;63849;47.546;19.254;2023-03-04T03:51:54;-0.20;77.40
51215;DHT22;63849;47.546;19.254;2023-03-04T03:54:20;-0.50;78.10
51215;DHT22;63849;47.546;19.254;2023-03-04T03:56:46;-0.60;78.60
51215;DHT22;63849;47.546;19.254;2023-03-04T03:59:12;-0.70;78.80
51215;DHT22;63849;47.546;19.254;2023-03-04T04:01:38;-0.50;78.40
51215;DHT22;63849;47.546;19.254;2023-03-04T04:04:07;-0.50;78.10
51215;DHT22;63849;47.546;19.254;2023-03-04T04:06:34;-0.40;77.10
51215;DHT22;63849;47.546;19.254;2023-03-04T04:08:59;-0.50;77.40
51215;DHT22;63849;47.546;19.254;2023-03-04T04:11:27;-0.70;77.90
51215;DHT22;63849;47.546;19.254;2023-03-04T04:13:52;-0.70;78.00
51215;DHT22;63849;47.546;19.254;2023-03-04T04:16:18;-0.70;78.40
51215;DHT22;63849;47.546;19.254;2023-03-04T04:18:44;-0.80;78.20
51215;DHT22;63849;47.546;19.254;2023-03-04T04:21:10;-0.70;77.70
51215;DHT22;63849;47.546;19.254;2023-03-04T04:23:36;-0.80;77.60
51215;DHT22;63849;47.546;19.254;2023-03-04T04:26:01;-0.70;77.00
51215;DHT22;63849;47.546;19.254;2023-03-04T04:28:27;-0.50;76.50
51215;DHT22;63849;47.546;19.254;2023-03-04T04:30:53;-0.60;76.40
51215;DHT22;63849;47.546;19.254;2023-03-04T04:33:19;-0.50;75.90
51215;DHT22;63849;47.546;19.254;2023-03-04T04:35:44;-0.50;75.30
51215;DHT22;63849;47.546;19.254;2023-03-04T04:38:10;-0.60;75.60
51215;DHT22;63849;47.546;19.254;2023-03-04T04:40:36;-0.60;75.90
51215;DHT22;63849;47.546;19.254;2023-03-04T04:43:02;-0.40;75.20
51215;DHT22;63849;47.546;19.254;2023-03-04T04:45:28;-0.40;74.50
51215;DHT22;63849;47.546;19.254;2023-03-04T04:47:54;-0.60;75.10
51215;DHT22;63849;47.546;19.254;2023-03-04T04:50:23;-0.70;75.50
51215;DHT22;63849;47.546;19.254;2023-03-04T04:52:48;-0.70;75.60
51215;DHT22;63849;47.546;19.254;2023-03-04T04:55:14;-0.80;75.80
51215;DHT22;63849;47.546;19.254;2023-03-04T04:57:40;-0.60;75.00
51215;DHT22;63849;47.546;19.254;2023-03-04T05:00:08;-0.60;74.40
51215;DHT22;63849;47.546;19.254;2023-03-04T05:02:35;-0.50;74.20
51215;DHT22;63849;47.546;19.254;2023-03-04T05:05:06;-0.60;74.50
51215;DHT22;63849;47.546;19.254;2023-03-04T05:07:33;-0.50;73.90
51215;DHT22;63849;47.546;19.254;2023-03-04T05:09:59;-0.60;74.20
51215;DHT22;63849;47.546;19.254;2023-03-04T05:12:24;-0.80;75.10
51215;DHT22;63849;47.546;19.254;2023-03-04T05:14:53;-0.80;75.00
51215;DHT22;63849;47.546;19.254;2023-03-04T05:17:18;-0.70;74.80
51215;DHT22;63849;47.546;19.254;2023-03-04T05:19:47;-0.50;74.10
51215;DHT22;63849;47.546;19.254;2023-03-04T05:22:12;-0.40;73.60
51215;DHT22;63849;47.546;19.254;2023-03-04T05:24:38;-0.40;73.50
51215;DHT22;63849;47.546;19.254;2023-03-04T05:27:05;-0.50;73.50
51215;DHT22;63849;47.546;19.254;2023-03-04T05:29:30;-0.40;73.50
51215;DHT22;63849;47.546;19.254;2023-03-04T05:31:56;-0.80;74.40
51215;DHT22;63849;47.546;19.254;2023-03-04T05:34:22;-0.60;74.50
51215;DHT22;63849;47.546;19.254;2023-03-04T05:36:48;-0.50;73.80
51215;DHT22;63849;47.546;19.254;2023-03-04T05:39:18;-0.50;73.70
51215;DHT22;63849;47.546;19.254;2023-03-04T05:41:44;-0.70;74.60
51215;DHT22;63849;47.546;19.254;2023-03-04T05:44:10;-0.90;75.60
51215;DHT22;63849;47.546;19.254;2023-03-04T05:46:35;-0.70;75.00
51215;DHT22;63849;47.546;19.254;2023-03-04T05:49:01;-0.90;75.70
51215;DHT22;63849;47.546;19.254;2023-03-04T05:51:27;-0.70;76.10
51215;DHT22;63849;47.546;19.254;2023-03-04T05:53:54;-0.80;75.70
51215;DHT22;63849;47.546;19.254;2023-03-04T05:56:20;-0.60;75.90
51215;DHT22;63849;47.546;19.254;2023-03-04T05:58:46;-0.50;75.40
51215;DHT22;63849;47.546;19.254;2023-03-04T06:01:17;-0.30;74.50
51215;DHT22;63849;47.546;19.254;2023-03-04T06:03:43;-0.40;75.10
51215;DHT22;63849;47.546;19.254;2023-03-04T06:06:09;-0.40;75.30
51215;DHT22;63849;47.546;19.254;2023-03-04T06:08:34;-0.10;75.30
51215;DHT22;63849;47.546;19.254;2023-03-04T06:11:01;-0.10;74.60
51215;DHT22;63849;47.546;19.254;2023-03-04T06:13:30;0.00;74.40
51215;DHT22;63849;47.546;19.254;2023-03-04T06:15:58;-0.10;76.00
51215;DHT22;63849;47.546;19.254;2023-03-04T06:18:27;0.00;76.20
51215;DHT22;63849;47.546;19.254;2023-03-04T06:20:56;0.10;75.00
51215;DHT22;63849;47.546;19.254;2023-03-04T06:23:23;0.40;75.20
51215;DHT22;63849;47.546;19.254;2023-03-04T06:25:56;0.60;74.30
51215;DHT22;63849;47.546;19.254;2023-03-04T06:28:24;0.80;73.40
51215;DHT22;63849;47.546;19.254;2023-03-04T06:30:54;1.10;73.80
51215;DHT22;63849;47.546;19.254;2023-03-04T06:33:22;1.00;73.60
51215;DHT22;63849;47.546;19.254;2023-03-04T06:35:48;1.10;73.70
51215;DHT22;63849;47.546;19.254;2023-03-04T06:38:18;1.30;72.80
51215;DHT22;63849;47.546;19.254;2023-03-04T06:40:43;1.30;73.10
51215;DHT22;63849;47.546;19.254;2023-03-04T06:43:11;1.40;73.90
51215;DHT22;63849;47.546;19.254;2023-03-04T06:45:40;1.60;72.80
51215;DHT22;63849;47.546;19.254;2023-03-04T06:48:06;1.70;72.90
51215;DHT22;63849;47.546;19.254;2023-03-04T06:50:32;1.70;74.00
51215;DHT22;63849;47.546;19.254;2023-03-04T06:52:58;1.90;72.20
51215;DHT22;63849;47.546;19.254;2023-03-04T06:55:24;2.00;71.80
51215;DHT22;63849;47.546;19.254;2023-03-04T06:57:50;2.20;71.20
51215;DHT22;63849;47.546;19.254;2023-03-04T07:00:19;2.30;71.10
51215;DHT22;63849;47.546;19.254;2023-03-04T07:02:50;2.30;71.50
51215;DHT22;63849;47.546;19.254;2023-03-04T07:05:16;2.40;70.60
51215;DHT22;63849;47.546;19.254;2023-03-04T07:07:44;2.40;70.70
51215;DHT22;63849;47.546;19.254;2023-03-04T07:10:10;2.40;70.70
51215;DHT22;63849;47.546;19.254;2023-03-04T07:12:38;2.40;70.80
51215;DHT22;63849;47.546;19.254;2023-03-04T07:15:04;2.60;70.30
51215;DHT22;63849;47.546;19.254;2023-03-04T07:17:33;2.70;70.60
51215;DHT22;63849;47.546;19.254;2023-03-04T07:19:59;2.80;70.70
51215;DHT22;63849;47.546;19.254;2023-03-04T07:22:28;2.80;69.60
51215;DHT22;63849;47.546;19.254;2023-03-04T07:24:55;2.90;69.80
51215;DHT22;63849;47.546;19.254;2023-03-04T07:27:21;3.00;69.60
51215;DHT22;63849;47.546;19.254;2023-03-04T07:29:50;3.10;69.60
51215;DHT22;63849;47.546;19.254;2023-03-04T07:32:17;3.20;69.20
51215;DHT22;63849;47.546;19.254;2023-03-04T07:34:45;3.30;69.10
51215;DHT22;63849;47.546;19.254;2023-03-04T07:37:11;3.40;68.70
51215;DHT22;63849;47.546;19.254;2023-03-04T07:39:37;3.50;68.80
51215;DHT22;63849;47.546;19.254;2023-03-04T07:42:03;3.80;68.40
51215;DHT22;63849;47.546;19.254;2023-03-04T07:44:28;3.80;66.90
51215;DHT22;63849;47.546;19.254;2023-03-04T07:46:55;3.80;67.80
51215;DHT22;63849;47.546;19.254;2023-03-04T07:49:22;3.80;67.00
51215;DHT22;63849;47.546;19.254;2023-03-04T07:51:47;4.00;66.80
51215;DHT22;63849;47.546;19.254;2023-03-04T07:54:16;4.00;67.10
51215;DHT22;63849;47.546;19.254;2023-03-04T07:56:45;4.20;66.30
51215;DHT22;63849;47.546;19.254;2023-03-04T07:59:13;4.30;65.60
51215;DHT22;63849;47.546;19.254;2023-03-04T08:01:39;4.40;65.70
51215;DHT22;63849;47.546;19.254;2023-03-04T08:04:07;4.50;65.10
51215;DHT22;63849;47.546;19.254;2023-03-04T08:06:34;4.60;63.70
51215;DHT22;63849;47.546;19.254;2023-03-04T08:09:09;4.60;63.80
51215;DHT22;63849;47.546;19.254;2023-03-04T08:11:36;4.60;63.20
51215;DHT22;63849;47.546;19.254;2023-03-04T08:14:03;4.60;62.80
51215;DHT22;63849;47.546;19.254;2023-03-04T08:16:32;4.60;62.40
51215;DHT22;63849;47.546;19.254;2023-03-04T08:19:08;4.80;63.10
51215;DHT22;63849;47.546;19.254;2023-03-04T08:21:34;4.80;62.30
51215;DHT22;63849;47.546;19.254;2023-03-04T08:24:03;5.00;62.60
51215;DHT22;63849;47.546;19.254;2023-03-04T08:26:44;5.10;63.00
51215;DHT22;63849;47.546;19.254;2023-03-04T08:29:19;5.10;62.40
51215;DHT22;63849;47.546;19.254;2023-03-04T08:31:55;5.20;63.20
51215;DHT22;63849;47.546;19.254;2023-03-04T08:34:31;5.30;62.80
51215;DHT22;63849;47.546;19.254;2023-03-04T08:36:57;5.40;62.10
51215;DHT22;63849;47.546;19.254;2023-03-04T08:39:23;5.50;61.60
51215;DHT22;63849;47.546;19.254;2023-03-04T08:41:51;5.50;60.10
51215;DHT22;63849;47.546;19.254;2023-03-04T08:44:20;5.60;60.00
51215;DHT22;63849;47.546;19.254;2023-03-04T08:46:48;5.80;58.10
51215;DHT22;63849;47.546;19.254;2023-03-04T08:49:19;5.80;58.70
51215;DHT22;63849;47.546;19.254;2023-03-04T08:51:45;5.90;58.00
51215;DHT22;63849;47.546;19.254;2023-03-04T08:54:11;5.90;57.40
51215;DHT22;63849;47.546;19.254;2023-03-04T08:56:37;6.10;58.00
51215;DHT22;63849;47.546;19.254;2023-03-04T08:59:05;6.30;57.50
51215;DHT22;63849;47.546;19.254;2023-03-04T09:01:32;6.30;56.50
51215;DHT22;63849;47.546;19.254;2023-03-04T09:03:57;6.50;55.70
51215;DHT22;63849;47.546;19.254;2023-03-04T09:06:23;6.60;54.10
51215;DHT22;63849;47.546;19.254;2023-03-04T09:08:49;6.70;53.70
51215;DHT22;63849;47.546;19.254;2023-03-04T09:11:15;6.70;51.90
51215;DHT22;63849;47.546;19.254;2023-03-04T09:13:41;6.80;52.50
51215;DHT22;63849;47.546;19.254;2023-03-04T09:16:12;7.00;53.30
51215;DHT22;63849;47.546;19.254;2023-03-04T09:18:39;7.10;53.50
51215;DHT22;63849;47.546;19.254;2023-03-04T09:21:08;7.20;52.70
51215;DHT22;63849;47.546;19.254;2023-03-04T09:23:35;7.40;50.00
51215;DHT22;63849;47.546;19.254;2023-03-04T09:26:34;7.40;50.40
51215;DHT22;63849;47.546;19.254;2023-03-04T09:28:55;7.50;51.00
51215;DHT22;63849;47.546;19.254;2023-03-04T09:31:22;7.50;50.50
51215;DHT22;63849;47.546;19.254;2023-03-04T09:33:49;7.60;51.20
51215;DHT22;63849;47.546;19.254;2023-03-04T09:36:15;7.60;50.30
51215;DHT22;63849;47.546;19.254;2023-03-04T09:38:42;7.60;49.80
51215;DHT22;63849;47.546;19.254;2023-03-04T09:41:23;7.70;51.50
51215;DHT22;63849;47.546;19.254;2023-03-04T09:43:51;7.80;50.40
51215;DHT22;63849;47.546;19.254;2023-03-04T09:46:31;7.80;50.40
51215;DHT22;63849;47.546;19.254;2023-03-04T09:49:01;7.70;50.60
51215;DHT22;63849;47.546;19.254;2023-03-04T10:11:10;8.20;49.80
51215;DHT22;63849;47.546;19.254;2023-03-04T10:16:15;8.10;50.10
51215;DHT22;63849;47.546;19.254;2023-03-04T10:18:49;8.20;49.90
51215;DHT22;63849;47.546;19.254;2023-03-04T10:21:29;8.30;50.20
51215;DHT22;63849;47.546;19.254;2023-03-04T10:23:58;8.30;49.50
51215;DHT22;63849;47.546;19.254;2023-03-04T10:26:30;8.40;49.60
51215;DHT22;63849;47.546;19.254;2023-03-04T10:29:03;8.50;50.40
51215;DHT22;63849;47.546;19.254;2023-03-04T10:31:43;8.60;48.80
51215;DHT22;63849;47.546;19.254;2023-03-04T10:34:14;8.60;50.30
51215;DHT22;63849;47.546;19.254;2023-03-04T10:39:43;8.50;49.70
51215;DHT22;63849;47.546;19.254;2023-03-04T10:44:55;8.60;49.00
51215;DHT22;63849;47.546;19.254;2023-03-04T10:47:26;8.60;49.70
51215;DHT22;63849;47.546;19.254;2023-03-04T10:49:55;8.60;50.90
51215;DHT22;63849;47.546;19.254;2023-03-04T10:52:34;8.70;50.70
51215;DHT22;63849;47.546;19.254;2023-03-04T10:55:06;8.70;50.30
51215;DHT22;63849;47.546;19.254;2023-03-04T10:57:40;8.70;50.60
51215;DHT22;63849;47.546;19.254;2023-03-04T11:03:29;8.70;49.40
51215;DHT22;63849;47.546;19.254;2023-03-04T11:06:10;8.80;49.40
51215;DHT22;63849;47.546;19.254;2023-03-04T11:08:39;8.80;51.20
51215;DHT22;63849;47.546;19.254;2023-03-04T11:11:24;8.70;51.10
51215;DHT22;63849;47.546;19.254;2023-03-04T11:13:55;8.70;50.80
51215;DHT22;63849;47.546;19.254;2023-03-04T11:16:26;8.60;52.10
51215;DHT22;63849;47.546;19.254;2023-03-04T11:18:55;8.70;51.70
51215;DHT22;63849;47.546;19.254;2023-03-04T11:21:29;8.70;51.90
51215;DHT22;63849;47.546;19.254;2023-03-04T11:24:13;8.80;52.60
51215;DHT22;63849;47.546;19.254;2023-03-04T11:29:23;8.80;51.80
51215;DHT22;63849;47.546;19.254;2023-03-04T11:31:59;8.90;51.20
51215;DHT22;63849;47.546;19.254;2023-03-04T11:34:57;8.90;50.60
51215;DHT22;63849;47.546;19.254;2023-03-04T11:40:34;8.90;51.60
51215;DHT22;63849;47.546;19.254;2023-03-04T11:43:49;8.90;50.30
51215;DHT22;63849;47.546;19.254;2023-03-04T11:54:34;8.80;50.60
51215;DHT22;63849;47.546;19.254;2023-03-04T12:54:44;9.30;47.70
51215;DHT22;63849;47.546;19.254;2023-03-04T12:57:14;9.30;48.60
51215;DHT22;63849;47.546;19.254;2023-03-04T13:09:13;9.20;47.50
51215;DHT22;63849;47.546;19.254;2023-03-04T13:16:47;9.20;47.00
51215;DHT22;63849;47.546;19.254;2023-03-04T13:24:57;9.40;46.10
51215;DHT22;63849;47.546;19.254;2023-03-04T13:38:32;9.50;45.30
51215;DHT22;63849;47.546;19.254;2023-03-04T13:43:57;9.50;45.10
51215;DHT22;63849;47.546;19.254;2023-03-04T13:51:32;9.70;43.60
51215;DHT22;63849;47.546;19.254;2023-03-04T13:56:28;9.60;44.40
51215;DHT22;63849;47.546;19.254;2023-03-04T13:59:20;9.60;43.70
51215;DHT22;63849;47.546;19.254;2023-03-04T14:04:39;9.60;41.80
51215;DHT22;63849;47.546;19.254;2023-03-04T14:07:30;9.60;40.90
51215;DHT22;63849;47.546;19.254;2023-03-04T14:10:23;9.50;41.30
51215;DHT22;63849;47.546;19.254;2023-03-04T14:12:50;9.60;40.70
51215;DHT22;63849;47.546;19.254;2023-03-04T14:15:28;9.50;40.40
51215;DHT22;63849;47.546;19.254;2023-03-04T14:17:59;9.50;40.70
51215;DHT22;63849;47.546;19.254;2023-03-04T14:20:36;9.60;40.40
51215;DHT22;63849;47.546;19.254;2023-03-04T14:23:26;9.50;40.50
51215;DHT22;63849;47.546;19.254;2023-03-04T14:26:03;9.60;40.40
51215;DHT22;63849;47.546;19.254;2023-03-04T14:28:30;9.50;41.30
51215;DHT22;63849;47.546;19.254;2023-03-04T14:30:58;9.50;41.70
51215;DHT22;63849;47.546;19.254;2023-03-04T14:33:29;9.50;41.00
51215;DHT22;63849;47.546;19.254;2023-03-04T14:35:59;9.50;41.00
51215;DHT22;63849;47.546;19.254;2023-03-04T14:41:16;9.50;39.60
51215;DHT22;63849;47.546;19.254;2023-03-04T14:43:50;9.50;39.00
51215;DHT22;63849;47.546;19.254;2023-03-04T14:46:19;9.40;39.40
51215;DHT22;63849;47.546;19.254;2023-03-04T14:48:49;9.40;39.20
51215;DHT22;63849;47.546;19.254;2023-03-04T14:51:33;9.40;38.60
51215;DHT22;63849;47.546;19.254;2023-03-04T14:54:01;9.30;39.10
51215;DHT22;63849;47.546;19.254;2023-03-04T14:56:33;9.20;39.50
51215;DHT22;63849;47.546;19.254;2023-03-04T14:58:59;9.30;39.50
51215;DHT22;63849;47.546;19.254;2023-03-04T15:04:08;9.10;39.90
51215;DHT22;63849;47.546;19.254;2023-03-04T15:06:51;9.10;39.80
51215;DHT22;63849;47.546;19.254;2023-03-04T15:09:23;9.10;40.50
51215;DHT22;63849;47.546;19.254;2023-03-04T15:11:51;9.00;41.20
51215;DHT22;63849;47.546;19.254;2023-03-04T15:17:42;8.90;41.60
51215;DHT22;63849;47.546;19.254;2023-03-04T15:20:20;8.80;42.30
51215;DHT22;63849;47.546;19.254;2023-03-04T15:25:17;8.80;42.50
51215;DHT22;63849;47.546;19.254;2023-03-04T15:27:48;8.80;42.20
51215;DHT22;63849;47.546;19.254;2023-03-04T15:30:20;8.60;43.00
51215;DHT22;63849;47.546;19.254;2023-03-04T15:32:47;8.60;42.90
51215;DHT22;63849;47.546;19.254;2023-03-04T15:35:14;8.50;43.00
51215;DHT22;63849;47.546;19.254;2023-03-04T15:37:41;8.40;43.40
51215;DHT22;63849;47.546;19.254;2023-03-04T15:40:27;8.40;43.80
51215;DHT22;63849;47.546;19.254;2023-03-04T15:42:55;8.30;44.00
51215;DHT22;63849;47.546;19.254;2023-03-04T15:45:25;8.30;43.50
51215;DHT22;63849;47.546;19.254;2023-03-04T15:47:51;8.10;44.30
51215;DHT22;63849;47.546;19.254;2023-03-04T15:50:18;8.00;44.40
51215;DHT22;63849;47.546;19.254;2023-03-04T15:52:44;8.10;43.40
51215;DHT22;63849;47.546;19.254;2023-03-04T15:55:19;7.90;43.50
51215;DHT22;63849;47.546;19.254;2023-03-04T15:57:52;7.90;42.70
51215;DHT22;63849;47.546;19.254;2023-03-04T16:00:19;7.80;42.80
51215;DHT22;63849;47.546;19.254;2023-03-04T16:02:45;7.70;43.20
51215;DHT22;63849;47.546;19.254;2023-03-04T16:05:12;7.70;43.00
51215;DHT22;63849;47.546;19.254;2023-03-04T16:07:41;7.50;43.50
51215;DHT22;63849;47.546;19.254;2023-03-04T16:10:20;7.40;43.80
51215;DHT22;63849;47.546;19.254;2023-03-04T16:12:47;7.30;43.50
51215;DHT22;63849;47.546;19.254;2023-03-04T16:15:21;7.30;44.00
51215;DHT22;63849;47.546;19.254;2023-03-04T16:17:48;7.20;44.40
51215;DHT22;63849;47.546;19.254;2023-03-04T16:20:17;7.10;44.10
51215;DHT22;63849;47.546;19.254;2023-03-04T16:22:45;7.00;45.10
51215;DHT22;63849;47.546;19.254;2023-03-04T16:25:13;6.80;45.10
51215;DHT22;63849;47.546;19.254;2023-03-04T16:27:40;6.60;46.10
51215;DHT22;63849;47.546;19.254;2023-03-04T16:30:12;6.50;45.80
51215;DHT22;63849;47.546;19.254;2023-03-04T16:32:38;6.40;45.90
51215;DHT22;63849;47.546;19.254;2023-03-04T16:35:04;6.30;46.00
51215;DHT22;63849;47.546;19.254;2023-03-04T16:37:30;6.30;46.60
51215;DHT22;63849;47.546;19.254;2023-03-04T16:39:56;6.20;46.70
51215;DHT22;63849;47.546;19.254;2023-03-04T16:42:23;6.20;46.90
51215;DHT22;63849;47.546;19.254;2023-03-04T16:44:52;6.20;47.00
51215;DHT22;63849;47.546;19.254;2023-03-04T16:47:19;6.10;47.30
51215;DHT22;63849;47.546;19.254;2023-03-04T16:49:46;6.10;47.70
51215;DHT22;63849;47.546;19.254;2023-03-04T16:52:31;6.10;47.90
51215;DHT22;63849;47.546;19.254;2023-03-04T16:54:57;6.00;48.30
51215;DHT22;63849;47.546;19.254;2023-03-04T16:57:23;6.00;48.40
51215;DHT22;63849;47.546;19.254;2023-03-04T16:59:53;5.90;48.70
51215;DHT22;63849;47.546;19.254;2023-03-04T17:02:21;5.90;49.10
51215;DHT22;63849;47.546;19.254;2023-03-04T17:04:49;5.80;49.40
51215;DHT22;63849;47.546;19.254;2023-03-04T17:07:15;5.70;49.60
51215;DHT22;63849;47.546;19.254;2023-03-04T17:09:41;5.80;49.50
51215;DHT22;63849;47.546;19.254;2023-03-04T17:12:10;5.80;49.60
51215;DHT22;63849;47.546;19.254;2023-03-04T17:14:36;5.60;50.00
51215;DHT22;63849;47.546;19.254;2023-03-04T17:17:03;5.80;49.60
51215;DHT22;63849;47.546;19.254;2023-03-04T17:19:30;5.80;49.20
51215;DHT22;63849;47.546;19.254;2023-03-04T17:21:57;5.70;49.40
51215;DHT22;63849;47.546;19.254;2023-03-04T17:24:24;5.60;50.10
51215;DHT22;63849;47.546;19.254;2023-03-04T17:26:50;5.60;50.10
51215;DHT22;63849;47.546;19.254;2023-03-04T17:29:16;5.60;50.10
51215;DHT22;63849;47.546;19.254;2023-03-04T17:31:42;5.40;50.80
51215;DHT22;63849;47.546;19.254;2023-03-04T17:34:07;5.30;50.90
51215;DHT22;63849;47.546;19.254;2023-03-04T17:36:33;5.20;51.60
51215;DHT22;63849;47.546;19.254;2023-03-04T17:39:00;5.10;52.00
51215;DHT22;63849;47.546;19.254;2023-03-04T17:41:27;5.10;52.50
51215;DHT22;63849;47.546;19.254;2023-03-04T17:43:53;5.00;52.70
51215;DHT22;63849;47.546;19.254;2023-03-04T17:46:21;5.00;52.80
51215;DHT22;63849;47.546;19.254;2023-03-04T17:48:57;5.00;53.10
51215;DHT22;63849;47.546;19.254;2023-03-04T17:51:34;5.00;53.10
51215;DHT22;63849;47.546;19.254;2023-03-04T17:54:01;4.90;53.30
51215;DHT22;63849;47.546;19.254;2023-03-04T17:56:28;4.80;53.60
51215;DHT22;63849;47.546;19.254;2023-03-04T17:58:56;4.90;53.50
51215;DHT22;63849;47.546;19.254;2023-03-04T18:01:22;5.00;53.60
51215;DHT22;63849;47.546;19.254;2023-03-04T18:03:48;5.10;53.60
51215;DHT22;63849;47.546;19.254;2023-03-04T18:06:14;5.10;53.60
51215;DHT22;63849;47.546;19.254;2023-03-04T18:08:41;5.10;54.00
51215;DHT22;63849;47.546;19.254;2023-03-04T18:11:08;5.00;54.50
51215;DHT22;63849;47.546;19.254;2023-03-04T18:13:36;4.90;55.10
51215;DHT22;63849;47.546;19.254;2023-03-04T18:16:03;4.90;55.20
51215;DHT22;63849;47.546;19.254;2023-03-04T18:18:29;4.90;55.50